Tiempo atmosférico en la estación meteorológica de Roncesvalles, Navarra (940 m.)



Fecha
DESCASC
Temp. máxima en grados centígrados (hora)
DESCASC
Temp. mínima en grados centígrados (hora)
DESCASC
Temp. media en grados centígrados
DESCASC
Racha de viento máxima en m/sg (hora)
DESCASC
Velocidad máxima media en intervalos de 10 minutos(hora)
DESCASC
Precipitaciones diarias en mm
DESCASC
Precipitaciones de 00:00 a 06:00 en mm
DESCASC
Precipitaciones de 06:00 a 12:00 en mm
DESCASC
Precipitaciones de 12:00 a 18:00 en mm
DESCASC
Precipitaciones de 18:00 a 24:00 en mm
DESCASC
08-12-2019 8.9 (18:20) 1.8 (06:10) 5.3 7.78 (18:20) 3.61 (19:20) 13.4 0 0 11.4 2
07-12-2019 12.8 (15:20) 1.3 (07:30) 7.1 6.94 (14:40) 2.78 (16:30) 0 0 0 0 0
06-12-2019 10.5 (15:00) 0.2 (00:50) 5.4 6.94 (14:30) 4.17 (12:50) 0 0 0 0 0
05-12-2019 7.9 (11:50) 1 (00:00) 4.5 12.5 (07:40) 6.67 (10:50) 0 0 0 0 0
04-12-2019 8.6 (12:30) -2 (-00:0) 3.3 12.22 (23:40) 5 (23:40) 0 0 0 0 0
03-12-2019 0.9 (16:10) -2 (-00:0) -0.6 8.06 (10:50) 4.17 (09:50) 1.6 1.4 0.2 0 0
02-12-2019 4.7 (04:10) -0.4 (00:00) 2.1 8.61 (01:50) 3.33 (16:10) 6.4 0 2.4 1.8 2.2
01-12-2019 8.7 (15:20) 0.2 (00:00) 4.4 5.28 (15:40) 2.5 (15:40) 0 0 0 0 0
30-11-2019 11.4 (12:00) 2.8 (00:00) 7.1 11.67 (12:10) 6.39 (12:20) 23.2 0 0 15.6 7.6
29-11-2019 11 (13:10) 3 (00:00) 7 6.39 (07:40) 2.5 (07:20) 2.2 2.2 0 0 0
28-11-2019 8.8 (13:50) 5.7 (00:00) 7.3 5.83 (17:10) 2.22 (01:20) 8.2 0.2 0 3 5
27-11-2019 9.4 (00:00) 3.1 (00:00) 6.2 11.39 (01:40) 4.44 (00:50) 5.6 0 0 1.4 4.2
26-11-2019 11.9 (17:40) 5.2 (00:00) 8.5 17.78 (17:30) 8.33 (19:20) 10.4 0 0 0.2 10.2
25-11-2019 12.3 (15:50) 4 (00:00) 8.2 3.33 (14:00) 1.94 (14:10) 0.4 0.4 0 0 0
24-11-2019 6.4 (14:10) 0.2 (00:00) 3.3 5 (11:10) 2.22 (15:50) 38.2 19.4 16 1.2 1.6
23-11-2019 6.7 (00:00) 1.1 (00:00) 3.9 12.78 (11:30) 3.89 (01:30) 62.8 2 21.4 20.8 18.6
22-11-2019 7.4 (20:30) 3.7 (00:00) 5.6 16.39 (12:40) 9.17 (11:10) 12.6 0 2 8 2.6
21-11-2019 4.9 (13:30) 1.6 (00:00) 3.3 9.17 (12:10) 4.72 (14:00) 1 0.6 0 0.4 0
20-11-2019 5.3 (14:50) -0.7 (-00:0) 2.3 8.61 (21:30) 5 (21:20) 0.2 0 0 0 0.2
19-11-2019 5.5 (14:40) -1.3 (-00:0) 2.1 8.06 (00:30) 4.17 (10:30) 0 0 0 0 0
18-11-2019 2.8 (13:30) -0.4 (00:00) 1.2 8.89 (04:30) 4.44 (23:30) 4.2 4 0.2 0 0
17-11-2019 2.2 (15:10) -0.2 (00:00) 1 1.67 (13:30) 0.83 (13:20) 10.4 2 1.6 4 2.8
16-11-2019 1 (03:40) -0.8 (-00:0) 0.1 6.94 (02:10) 2.22 (01:30) 24.4 0 3 17 4.4
15-11-2019 2.2 (14:10) -0.5 (-00:0) 0.9 8.89 (13:40) 3.33 (14:10) 14.4 2 7.2 5 0.2
14-11-2019 4.9 (12:20) -1.4 (-00:0) 1.8 6.11 (03:50) 3.33 (13:30) 15 10.2 2.2 0 2.6
13-11-2019 5.9 (12:20) 1.2 (00:00) 3.6 7.22 (06:40) 2.5 (06:50) 4.4 0 3.2 1 0.2
12-11-2019 4.5 (11:10) 1.9 (00:00) 3.2 7.22 (08:00) 1.94 (08:00) 19.2 5.2 10.4 3.2 0.4
11-11-2019 5.3 (11:10) 0.7 (00:00) 3 10.28 (15:20) 3.61 (15:30) 16.2 0 0.2 10.4 5.6

Gráficas

Temp. máximas Temp. mínimas Temp. medias Precipitaciones Rachas de viento máximas Velocidades máximas media en intervalos de 10 minutos

Datos horarios

Fecha y hora oficial Temperatura (ºC) Velocidad del viento (km/h) Dirección del viento Racha (km/h) Dirección de racha Precipitación (mm) Presión (hPa) Tendencia (hPa) Humedad (%)
2019-12-10 23:00:00 4.1 0 Calma 2 Nordeste 0 -- -- 79
2019-12-10 22:00:00 4 0 Calma 5 Nordeste 0 -- -- 75
2019-12-10 21:00:00 3.6 0 Calma 2 Norte 0 -- -- 82
2019-12-10 20:00:00 4.4 0 Calma 3 Nordeste 0 -- -- 80
2019-12-10 19:00:00 4.5 0 Calma 4 Norte 0 -- -- 74
2019-12-10 18:00:00 5.6 2 Norte 4 Norte 0 -- -- 62
2019-12-10 17:00:00 7.9 2 Norte 9 Norte 0 -- -- 53
2019-12-10 16:00:00 11.9 6 Norte 14 Nordeste 0 -- -- 31
2019-12-10 15:00:00 13.6 5 Norte 21 Nordeste 0 -- -- 20
2019-12-10 14:00:00 11.7 5 Sur 13 Sudoeste 0 -- -- 64
2019-12-10 13:00:00 10.3 5 Sur 9 Sudoeste 0 -- -- 61
2019-12-10 12:00:00 8 4 Sur 22 Norte 0 -- -- 69
2019-12-10 11:00:00 5.6 13 Norte 32 Norte 0 -- -- 79
2019-12-10 10:00:00 4.5 20 Norte 38 Norte 0 -- -- 82
2019-12-10 09:00:00 3.5 18 Norte 35 Norte 0 -- -- 89
2019-12-10 08:00:00 2.4 4 Sudoeste 14 Noroeste 0 -- -- 99
2019-12-10 07:00:00 3.1 4 Este 16 Noroeste 0 -- -- 96
2019-12-10 06:00:00 3.3 4 Sur 17 Oeste 0 -- -- 99
2019-12-10 05:00:00 3.5 5 Sur 23 Este 0 -- -- 100
2019-12-10 04:00:00 3.5 6 Sudoeste 24 Oeste 0.2 -- -- 100
2019-12-10 03:00:00 3.5 5 Sur 22 Nordeste 0.4 -- -- 100
2019-12-10 02:00:00 3.7 6 Sudoeste 22 Noroeste 0 -- -- 100
2019-12-10 01:00:00 3.9 7 Oeste 26 Noroeste 0 -- -- 95
2019-12-10 00:00:00 4 7 Oeste 31 Norte 0.4 -- -- 98
2019-12-09 23:00:00 4 8 Noroeste 28 Noroeste 0.8 -- -- 99
2019-12-09 22:00:00 4 6 Sudoeste 26 Norte 0.8 -- -- 98
2019-12-09 21:00:00 4.4 8 Noroeste 34 Nordeste 0.6 -- -- 98
2019-12-09 20:00:00 4.1 10 Norte 32 Oeste 3 -- -- 98
2019-12-09 19:00:00 4 8 Norte 30 Oeste 2.8 -- -- 97
2019-12-09 18:00:00 4 9 Noroeste 33 Nordeste 2.4 -- -- 96
2019-12-09 17:00:00 4.2 8 Norte 44 Noroeste 2.6 -- -- 95
2019-12-09 16:00:00 4 10 Norte 34 Norte 2.8 -- -- 97
2019-12-09 15:00:00 4 10 Norte 30 Norte 3.4 -- -- 96
2019-12-09 14:00:00 4.4 8 Norte 31 Norte 1.8 -- -- 95
2019-12-09 13:00:00 4.7 10 Norte 32 Nordeste 3.8 -- -- 97
2019-12-09 12:00:00 4.7 9 Noroeste 32 Nordeste 2.4 -- -- 96
2019-12-09 11:00:00 4.7 10 Norte 42 Norte 6.2 -- -- 97
2019-12-09 10:00:00 5 6 Noroeste 32 Sudoeste 1.2 -- -- 96
2019-12-09 09:00:00 4.8 10 Norte 35 Norte 3.6 -- -- 96
2019-12-09 08:00:00 5.1 6 Sur 29 Sur 2.4 -- -- 94
2019-12-09 07:00:00 4.9 6 Nordeste 26 Noroeste 1.4 -- -- 93
2019-12-09 06:00:00 4.9 6 Oeste 26 Sudoeste 0.2 -- -- 91
2019-12-09 05:00:00 5.4 5 Noroeste 22 Noroeste 0 -- -- 91
2019-12-09 04:00:00 4.8 3 Sur 18 Oeste 0 -- -- 90
2019-12-09 03:00:00 4.8 3 Norte 13 Noroeste 0 -- -- 92
2019-12-09 02:00:00 4.8 3 Noroeste 17 Noroeste 0 -- -- 92
2019-12-09 01:00:00 2.9 2 Nordeste 17 Nordeste 0 -- -- 100
2019-12-09 00:00:00 5.2 5 Este 21 Nordeste 0 -- -- 88
2019-12-08 23:00:00 5.4 7 Nordeste 26 Norte 0.2 -- -- 90
2019-12-08 22:00:00 5.6 3 Sudeste 19 Nordeste 0 -- -- 93
2019-12-08 21:00:00 6.4 5 Sur 24 Este 0 -- -- 93
2019-12-08 20:00:00 6.9 7 Sudeste 23 Nordeste 0 -- -- 95
2019-12-08 19:00:00 7.8 9 Este 28 Norte 1.8 -- -- 97
2019-12-08 18:00:00 8.4 6 Noroeste 20 Norte 2.8 -- -- 100
2019-12-08 17:00:00 6.5 3 Oeste 6 Oeste 3.6 -- -- 100
2019-12-08 16:00:00 6.8 2 Oeste 5 Sudoeste 2.4 -- -- 100
2019-12-08 15:00:00 7.2 0 Calma 2 Sudeste 1.6 -- -- 100
2019-12-08 14:00:00 7.3 0 Calma 4 Nordeste 1 -- -- 100
2019-12-08 13:00:00 6.9 0 Calma 5 Oeste 0 -- -- 98
2019-12-08 12:00:00 7.3 3 Sudoeste 5 Oeste 0 -- -- 96
2019-12-08 11:00:00 6.7 0 Calma 8 Este 0 -- -- 100
2019-12-08 10:00:00 6.3 0 Calma 5 Nordeste 0 -- -- 100
2019-12-08 09:00:00 4.1 0 Calma 6 Nordeste 0 -- -- 100
2019-12-08 08:00:00 3.4 2 Norte 4 Norte 0 -- -- 100
2019-12-08 07:00:00 3.6 3 Norte 5 Nordeste 0 -- -- 100
2019-12-08 06:00:00 2.3 0 Calma 5 Norte 0 -- -- 100
2019-12-08 05:00:00 3.9 4 Norte 6 Norte 0 -- -- 100
2019-12-08 04:00:00 3 0 Calma 4 Norte 0 -- -- 100
2019-12-08 03:00:00 2.8 0 Calma 6 Norte 0 -- -- 100
2019-12-08 02:00:00 3.9 0 Calma 3 Sudeste 0 -- -- 100
2019-12-08 01:00:00 4.3 0 Calma 4 Nordeste 0 -- -- 100
2019-12-08 00:00:00 4.3 2 Noroeste 6 Nordeste 0 -- -- 100
2019-12-07 23:00:00 4.9 4 Norte 5 Norte 0 -- -- 100
2019-12-07 22:00:00 6.5 0 Calma 6 Norte 0 -- -- 99
2019-12-07 21:00:00 7.1 3 Norte 9 Norte 0 -- -- 96
2019-12-07 20:00:00 7.4 0 Calma 8 Norte 0 -- -- 97
2019-12-07 19:00:00 7.2 5 Norte 19 Nordeste 0 -- -- 95
2019-12-07 18:00:00 8.1 5 Norte 15 Norte 0 -- -- 89
2019-12-07 17:00:00 9.2 6 Norte 18 Norte 0 -- -- 86
2019-12-07 16:00:00 10.8 7 Norte 14 Norte 0 -- -- 80
2019-12-07 15:00:00 12.2 4 Sudoeste 25 Norte 0 -- -- 75
2019-12-07 14:00:00 11.9 4 Noroeste 13 Nordeste 0 -- -- 78
2019-12-07 13:00:00 10.4 4 Nordeste 14 Nordeste 0 -- -- 78
2019-12-07 12:00:00 10.8 4 Este 10 Sudeste 0 -- -- 72
2019-12-07 11:00:00 7.5 3 Sur 9 Sur 0 -- -- 92
2019-12-07 10:00:00 4.9 0 Calma 3 Sudoeste 0 -- -- 93
2019-12-07 09:00:00 2.6 0 Calma 2 Nordeste 0 -- -- 100
2019-12-07 08:00:00 1.8 0 Calma 3 Norte 0 -- -- 100
2019-12-07 07:00:00 1.7 0 Calma 3 Norte 0 -- -- 100
2019-12-07 06:00:00 1.9 0 Calma 3 Norte 0 -- -- 100
2019-12-07 05:00:00 2.5 0 Calma 2 Nordeste 0 -- -- 100
2019-12-07 04:00:00 3.1 0 Calma 2 Nordeste 0 -- -- 100
2019-12-07 03:00:00 2.5 0 Calma 4 Norte 0 -- -- 100
2019-12-07 02:00:00 3.4 0 Calma 3 Norte 0 -- -- 100
2019-12-07 01:00:00 2.5 0 Calma 2 Noroeste 0 -- -- 100
2019-12-07 00:00:00 2.1 0 Calma 3 Nordeste 0 -- -- 100
2019-12-06 23:00:00 3.5 3 Norte 5 Norte 0 -- -- 99
2019-12-06 22:00:00 3.5 0 Calma 4 Norte 0 -- -- 100
2019-12-06 21:00:00 4.2 2 Norte 4 Norte 0 -- -- 100
2019-12-06 20:00:00 4.4 2 Norte 4 Nordeste 0 -- -- 99
2019-12-06 19:00:00 4.6 0 Calma 4 Sudoeste 0 -- -- 96
2019-12-06 18:00:00 6 0 Calma 11 Sudoeste 0 -- -- 92
2019-12-06 17:00:00 8.2 7 Sur 21 Sur 0 -- -- 81
2019-12-06 16:00:00 9.4 9 Sur 22 Sur 0 -- -- 76
2019-12-06 15:00:00 10.5 9 Sur 25 Sudoeste 0 -- -- 72
2019-12-06 14:00:00 9.8 13 Sur 24 Sudoeste 0 -- -- 75
2019-12-06 13:00:00 9.2 13 Sur 24 Sur 0 -- -- 80
2019-12-06 12:00:00 8.4 11 Sur 23 Sudeste 0 -- -- 85
2019-12-06 11:00:00 7.4 4 Sudeste 12 Sudeste 0 -- -- 88
2019-12-06 10:00:00 4.6 0 Calma 4 Sudeste 0 -- -- 100
2019-12-06 09:00:00 1.8 0 Calma 4 Norte 0 -- -- 100
2019-12-06 08:00:00 3.9 0 Calma 4 Nordeste 0 -- -- 98
2019-12-06 07:00:00 1 0 Calma 4 Norte 0 -- -- 100
2019-12-06 06:00:00 2 0 Calma 3 Noroeste 0 -- -- 100
2019-12-06 05:00:00 3.4 0 Calma 5 Nordeste 0 -- -- 97
2019-12-06 04:00:00 1.5 0 Calma 5 Norte 0 -- -- 100
2019-12-06 03:00:00 3.4 3 Norte 8 Nordeste 0 -- -- 92
2019-12-06 02:00:00 1.9 3 Norte 7 Nordeste 0 -- -- 98
2019-12-06 01:00:00 0.5 0 Calma 4 Nordeste 0 -- -- 100
2019-12-06 00:00:00 1 0 Calma 3 Este 0 -- -- 99
2019-12-05 23:00:00 1.6 0 Calma 3 Norte 0 -- -- 99
2019-12-05 22:00:00 2.3 0 Calma 24 Norte 0 -- -- 97
2019-12-05 21:00:00 5 9 Nordeste 30 Noroeste 0 -- -- 87
2019-12-05 20:00:00 4.5 14 Norte 27 Noroeste 0 -- -- 92
2019-12-05 19:00:00 4.4 9 Norte 41 Norte 0 -- -- 97
2019-12-05 18:00:00 4.5 12 Noroeste 28 Noroeste 0 -- -- 97
2019-12-05 17:00:00 4.9 13 Noroeste 32 Norte 0 -- -- 94
2019-12-05 16:00:00 5.6 12 Noroeste 32 Noroeste 0 -- -- 92
2019-12-05 15:00:00 6.3 12 Noroeste 35 Norte 0 -- -- 88
2019-12-05 14:00:00 5.7 19 Noroeste 36 Noroeste 0 -- -- 89
2019-12-05 13:00:00 7 13 Oeste 28 Oeste 0 -- -- 77
2019-12-05 12:00:00 7.8 13 Este 42 Este 0 -- -- 66
2019-12-05 11:00:00 7 20 Este 45 Este 0 -- -- 72
2019-12-05 10:00:00 5.1 17 Nordeste 42 Nordeste 0 -- -- 96
2019-12-05 09:00:00 3.1 10 Nordeste 35 Este 0 -- -- 100
2019-12-05 08:00:00 2.7 12 Nordeste 45 Norte 0 -- -- 100
2019-12-05 07:00:00 2.4 10 Norte 30 Norte 0 -- -- 100
2019-12-05 06:00:00 2.1 8 Norte 35 Norte 0 -- -- 100
2019-12-05 05:00:00 2 6 Oeste 29 Noroeste 0 -- -- 100
2019-12-05 04:00:00 2.1 15 Noroeste 28 Noroeste 0 -- -- 100
2019-12-05 03:00:00 2.2 12 Noroeste 33 Norte 0 -- -- 100
2019-12-05 02:00:00 2.4 17 Norte 33 Norte 0 -- -- 100
2019-12-05 01:00:00 2.6 15 Norte 32 Noroeste 0 -- -- 100
2019-12-05 00:00:00 2.8 9 Norte 44 Norte 0 -- -- 100
2019-12-04 23:00:00 2.8 10 Norte 34 Norte 0 -- -- 100
2019-12-04 22:00:00 2.9 17 Norte 32 Norte 0 -- -- 100
2019-12-04 21:00:00 3 7 Norte 24 Norte 0 -- -- 100
2019-12-04 20:00:00 3 5 Sudeste 21 Norte 0 -- -- 100
2019-12-04 19:00:00 2.8 14 Norte 28 Noroeste 0 -- -- 100
2019-12-04 18:00:00 3.1 5 Sudoeste 24 Noroeste 0 -- -- 98
2019-12-04 17:00:00 4.8 8 Norte 21 Norte 0 -- -- 86
2019-12-04 16:00:00 6.7 9 Norte 25 Norte 0 -- -- 71
2019-12-04 15:00:00 7.4 9 Norte 23 Nordeste 0 -- -- 69
2019-12-04 14:00:00 8.2 7 Norte 19 Norte 0 -- -- 64
2019-12-04 13:00:00 8.2 0 Calma 17 Norte 0 -- -- 62
2019-12-04 12:00:00 7.4 12 Norte 26 Norte 0 -- -- 60
2019-12-04 11:00:00 6.5 9 Norte 25 Nordeste 0 -- -- 73
2019-12-04 10:00:00 2.3 0 Calma 5 Sur 0 -- -- 100
2019-12-04 09:00:00 -0.2 0 Calma 4 Norte 0 -- -- 100
2019-12-04 08:00:00 -0.5 0 Calma 2 Norte 0 -- -- 100
2019-12-04 07:00:00 -0.5 0 Calma 3 Noroeste 0 -- -- 100
2019-12-04 06:00:00 -0.6 0 Calma 3 Este 0 -- -- 100
2019-12-04 05:00:00 -1.1 0 Calma 4 Norte 0 -- -- 100
2019-12-04 04:00:00 -0.7 0 Calma 4 Noroeste 0 -- -- 100
2019-12-04 03:00:00 -0.2 2 Norte 6 Nordeste 0 -- -- 100
2019-12-04 02:00:00 -1.2 0 Calma 5 Noroeste 0 -- -- 100
2019-12-04 01:00:00 -0.8 0 Calma 3 Norte 0 -- -- 100
2019-12-04 00:00:00 -2 0 Calma 2 Nordeste 0 -- -- 100
2019-12-03 23:00:00 -1.3 0 Calma 2 Noroeste 0 -- -- 100
2019-12-03 22:00:00 -1.8 0 Calma 3 Nordeste 0 -- -- 100
2019-12-03 21:00:00 -1.7 0 Calma 3 Norte 0 -- -- 100
2019-12-03 20:00:00 -1.4 0 Calma 2 Este 0 -- -- 100
2019-12-03 19:00:00 -0.9 0 Calma 2 Sudoeste 0 -- -- 100
2019-12-03 18:00:00 -0.4 0 Calma 4 Oeste 0 -- -- 100
2019-12-03 17:00:00 0.7 0 Calma 3 Sur 0 -- -- 100
2019-12-03 16:00:00 0.7 0 Calma 4 Sudeste 0 -- -- 100
2019-12-03 15:00:00 0.3 0 Calma 4 Este 0 -- -- 100
2019-12-03 14:00:00 -0.2 0 Calma 9 Nordeste 0 -- -- 100
2019-12-03 13:00:00 -0.4 5 Norte 14 Norte 0 -- -- 100
2019-12-03 12:00:00 -0.5 7 Norte 21 Norte 0 -- -- 100
2019-12-03 11:00:00 -0.6 11 Norte 29 Norte 0.2 -- -- 100
2019-12-03 10:00:00 -0.6 14 Norte 26 Nordeste 0 -- -- 100
2019-12-03 09:00:00 -0.6 8 Norte 24 Sudeste 0 -- -- 100
2019-12-03 08:00:00 -0.5 8 Norte 21 Norte 0 -- -- 100
2019-12-03 07:00:00 -0.6 10 Norte 22 Norte 0 -- -- 100
2019-12-03 06:00:00 -0.8 12 Norte 23 Nordeste 0.2 -- -- 100
2019-12-03 05:00:00 -0.7 10 Norte 26 Norte 0.2 -- -- 100
2019-12-03 04:00:00 -0.7 10 Norte 28 Noroeste 0 -- -- 100
2019-12-03 03:00:00 -0.6 8 Norte 27 Nordeste 0.2 -- -- 100
2019-12-03 02:00:00 -0.6 8 Nordeste 27 Este 0.4 -- -- 100
2019-12-03 01:00:00 -0.4 5 Nordeste 18 Este 0.4 -- -- 100
2019-12-03 00:00:00 -0.4 6 Norte 29 Nordeste 0.4 -- -- 100
2019-12-02 23:00:00 -0.2 6 Este 26 Noroeste 0.2 -- -- 100
2019-12-02 22:00:00 -0.1 6 Sudeste 18 Este 0.4 -- -- 100
2019-12-02 21:00:00 0 4 Sudoeste 18 Este 0.4 -- -- 100
2019-12-02 20:00:00 0.1 6 Sudeste 17 Sudeste 0.2 -- -- 100
2019-12-02 19:00:00 0.4 9 Noroeste 22 Norte 0.6 -- -- 100
2019-12-02 18:00:00 1.1 4 Sur 21 Este 0.2 -- -- 100
2019-12-02 17:00:00 2 7 Sudeste 23 Este 0.4 -- -- 100
2019-12-02 16:00:00 2.7 10 Sudeste 24 Este 0.2 -- -- 100
2019-12-02 15:00:00 3 5 Sudeste 27 Nordeste 0.6 -- -- 100
2019-12-02 14:00:00 3.2 6 Sudeste 23 Nordeste 0.2 -- -- 100
2019-12-02 13:00:00 3.2 6 Este 21 Este 0.2 -- -- 100
2019-12-02 12:00:00 3.2 5 Sudeste 19 Norte 0.8 -- -- 100
2019-12-02 11:00:00 3.2 8 Este 24 Este 0.6 -- -- 100
2019-12-02 10:00:00 3.1 10 Este 22 Este 0.8 -- -- 100
2019-12-02 09:00:00 2.8 5 Sur 24 Este 0 -- -- 100
2019-12-02 08:00:00 3.1 5 Este 20 Este 0 -- -- 100
2019-12-02 07:00:00 3.1 5 Nordeste 18 Noroeste 0.2 -- -- 100
2019-12-02 06:00:00 3.7 4 Norte 19 Nordeste 0 -- -- 100
2019-12-02 05:00:00 4.2 5 Norte 22 Nordeste 0 -- -- 96
2019-12-02 04:00:00 4.6 5 Nordeste 29 Nordeste 0 -- -- 94
2019-12-02 03:00:00 4.3 5 Nordeste 16 Este 0 -- -- 98
2019-12-02 02:00:00 4.5 7 Noroeste 31 Noroeste 0 -- -- 97
2019-12-02 01:00:00 4.5 4 Nordeste 16 Norte 0 -- -- 97
2019-12-02 00:00:00 4.4 4 Norte 13 Noroeste 0 -- -- 97
2019-12-01 23:00:00 4.5 5 Oeste 18 Oeste 0 -- -- 96
2019-12-01 22:00:00 4.6 5 Este 15 Este 0 -- -- 95
2019-12-01 21:00:00 4.9 3 Noroeste 18 Este 0 -- -- 98
2019-12-01 20:00:00 4.8 3 Sudoeste 13 Noroeste 0 -- -- 99
2019-12-01 19:00:00 4.9 5 Nordeste 14 Este 0 -- -- 96
2019-12-01 18:00:00 4.7 3 Norte 14 Norte 0 -- -- 97
2019-12-01 17:00:00 5.3 6 Norte 18 Norte 0 -- -- 93
2019-12-01 16:00:00 6.2 9 Norte 19 Norte 0 -- -- 91
2019-12-01 15:00:00 7.5 3 Noroeste 13 Sur 0 -- -- 78
2019-12-01 14:00:00 7.6 3 Sur 5 Sudeste 0 -- -- 88
2019-12-01 13:00:00 7 3 Sudoeste 5 Sur 0 -- -- 87
2019-12-01 12:00:00 6.3 0 Calma 6 Norte 0 -- -- 92
2019-12-01 11:00:00 4.4 0 Calma 4 Este 0 -- -- 100
2019-12-01 10:00:00 2.7 0 Calma 3 Norte 0 -- -- 100
2019-12-01 09:00:00 2.5 2 Norte 7 Nordeste 0 -- -- 100
2019-12-01 08:00:00 1.2 0 Calma 5 Nordeste 0 -- -- 100
2019-12-01 07:00:00 1.3 2 Nordeste 6 Nordeste 0 -- -- 100
2019-12-01 06:00:00 1.3 0 Calma 6 Norte 0 -- -- 100
2019-12-01 05:00:00 1.2 3 Norte 5 Norte 0 -- -- 100
2019-12-01 04:00:00 0.6 0 Calma 3 Oeste 0 -- -- 100
2019-12-01 03:00:00 1.1 0 Calma 4 Norte 0 -- -- 100
2019-12-01 02:00:00 1.3 2 Norte 4 Norte 0 -- -- 100
2019-12-01 01:00:00 1.7 3 Norte 6 Norte 0 -- -- 100
2019-12-01 00:00:00 3.2 3 Norte 6 Norte 0 -- -- 100
2019-11-30 23:00:00 3.1 2 Nordeste 5 Norte 0 -- -- 100
2019-11-30 22:00:00 3.7 4 Norte 9 Norte 0 -- -- 100
2019-11-30 21:00:00 3.8 0 Calma 17 Sudeste 0 -- -- 100
2019-11-30 20:00:00 4.4 7 Este 15 Este 2.8 -- -- 100
2019-11-30 19:00:00 4.8 3 Norte 19 Nordeste 4.8 -- -- 99
2019-11-30 18:00:00 4.8 8 Nordeste 26 Nordeste 5.4 -- -- 97
2019-11-30 17:00:00 5.4 14 Norte 28 Norte 6.8 -- -- 96
2019-11-30 16:00:00 6.5 11 Norte 39 Norte 3.2 -- -- 96
2019-11-30 15:00:00 10.6 12 Sur 30 Sudoeste 0.2 -- -- 87
2019-11-30 14:00:00 11.1 14 Sur 33 Sur 0 -- -- 84
2019-11-30 13:00:00 10.6 15 Sur 42 Sur 0 -- -- 84
2019-11-30 12:00:00 11.4 13 Sur 25 Sur 0 -- -- 83
2019-11-30 11:00:00 9.4 10 Sudeste 25 Sudeste 0 -- -- 82
2019-11-30 10:00:00 9.5 8 Sudeste 22 Sudeste 0 -- -- 80
2019-11-30 09:00:00 8.8 8 Sudeste 22 Sur 0 -- -- 82
2019-11-30 08:00:00 8.2 5 Este 18 Este 0 -- -- 84
2019-11-30 07:00:00 7.7 5 Sur 13 Este 0 -- -- 84
2019-11-30 06:00:00 6.2 4 Nordeste 14 Sudeste 0 -- -- 83
2019-11-30 05:00:00 5.6 4 Este 12 Este 0 -- -- 86
2019-11-30 04:00:00 5 2 Este 9 Sudeste 0 -- -- 90
2019-11-30 03:00:00 4.3 2 Norte 5 Nordeste 0 -- -- 91
2019-11-30 02:00:00 4.8 2 Norte 5 Sudeste 0 -- -- 91
2019-11-30 01:00:00 4 3 Norte 7 Norte 0 -- -- 93
2019-11-30 00:00:00 3.7 0 Calma 4 Nordeste 0 -- -- 98
2019-11-29 23:00:00 3.9 0 Calma 4 Este 0 -- -- 100
2019-11-29 22:00:00 3 0 Calma 3 Norte 0 -- -- 100
2019-11-29 21:00:00 3.1 0 Calma 3 Norte 0 -- -- 100
2019-11-29 20:00:00 3.4 0 Calma 5 Nordeste 0 -- -- 100
2019-11-29 19:00:00 4.3 0 Calma 10 Norte 0 -- -- 99
2019-11-29 18:00:00 5.5 4 Norte 6 Nordeste 0 -- -- 94
2019-11-29 17:00:00 8.2 3 Norte 10 Norte 0 -- -- 82
2019-11-29 16:00:00 10.3 4 Nordeste 18 Este 0 -- -- 70
2019-11-29 15:00:00 10.1 9 Nordeste 17 Nordeste 0 -- -- 73
2019-11-29 14:00:00 9.9 4 Nordeste 16 Nordeste 0 -- -- 74
2019-11-29 13:00:00 10.3 5 Noroeste 16 Nordeste 0 -- -- 74
2019-11-29 12:00:00 9.6 4 Sur 14 Norte 0 -- -- 82
2019-11-29 11:00:00 8.6 2 Nordeste 14 Nordeste 0 -- -- 87
2019-11-29 10:00:00 8.2 3 Norte 17 Este 0 -- -- 90
2019-11-29 09:00:00 7.5 4 Norte 18 Este 0 -- -- 93
2019-11-29 08:00:00 7.5 4 Norte 23 Nordeste 0 -- -- 92
2019-11-29 07:00:00 7.5 8 Norte 20 Nordeste 0 -- -- 94
2019-11-29 06:00:00 8 3 Sudeste 14 Nordeste 0.2 -- -- 100
2019-11-29 05:00:00 8.4 4 Sudoeste 19 Sudoeste 0 -- -- 100
2019-11-29 04:00:00 8.6 3 Sudoeste 10 Sudoeste 1.2 -- -- 100
2019-11-29 03:00:00 8.4 2 Sudoeste 8 Sudoeste 0.6 -- -- 100
2019-11-29 02:00:00 8.2 0 Calma 7 Oeste 0.2 -- -- 100
2019-11-29 01:00:00 8 0 Calma 4 Noroeste 0 -- -- 100
2019-11-29 00:00:00 8 0 Calma 7 Sur 0.6 -- -- 100
2019-11-28 23:00:00 8 4 Sudoeste 12 Sur 0.2 -- -- 100
2019-11-28 22:00:00 8 3 Sur 5 Sudoeste 0.4 -- -- 100
2019-11-28 21:00:00 7.9 2 Norte 8 Sudoeste 0.6 -- -- 100
2019-11-28 20:00:00 7.6 0 Calma 3 Oeste 1.4 -- -- 100
2019-11-28 19:00:00 7.6 0 Calma 9 Sudeste 1.8 -- -- 100
2019-11-28 18:00:00 7.6 3 Oeste 21 Sudoeste 0.2 -- -- 100
2019-11-28 17:00:00 7.8 6 Sudoeste 20 Sur 2.6 -- -- 100
2019-11-28 16:00:00 8 4 Sudoeste 11 Sur 0.2 -- -- 100
2019-11-28 15:00:00 8.3 2 Oeste 14 Sur 0 -- -- 99
2019-11-28 14:00:00 8.8 3 Sudoeste 12 Sur 0 -- -- 96
2019-11-28 13:00:00 8.2 3 Sudoeste 10 Sudoeste 0 -- -- 98
2019-11-28 12:00:00 7.9 0 Calma 3 Norte 0 -- -- 99
2019-11-28 11:00:00 7.3 0 Calma 8 Sudoeste 0 -- -- 99
2019-11-28 10:00:00 7.2 0 Calma 4 Sudeste 0 -- -- 99
2019-11-28 09:00:00 6.6 0 Calma 5 Sur 0 -- -- 100
2019-11-28 08:00:00 6.2 0 Calma 5 Sudoeste 0 -- -- 100
2019-11-28 07:00:00 6 3 Sur 10 Sudoeste 0 -- -- 100
2019-11-28 06:00:00 6.6 2 Noroeste 6 Norte 0 -- -- 99
2019-11-28 05:00:00 6.2 3 Sudoeste 9 Sur 0 -- -- 100
2019-11-28 04:00:00 5.7 2 Sudoeste 6 Sudoeste 0 -- -- 100
2019-11-28 03:00:00 6.2 4 Sur 11 Oeste 0 -- -- 100
2019-11-28 02:00:00 6.3 5 Sudoeste 18 Sudoeste 0 -- -- 100
2019-11-28 01:00:00 6.4 4 Sudoeste 9 Sur 0.2 -- -- 100
2019-11-28 00:00:00 6.4 4 Sudoeste 10 Sudoeste 0 -- -- 100
2019-11-27 23:00:00 6.2 0 Calma 7 Sur 0.6 -- -- 100
2019-11-27 22:00:00 6.2 0 Calma 10 Sudoeste 1 -- -- 100
2019-11-27 21:00:00 6.2 4 Sudoeste 11 Sur 0.2 -- -- 100
2019-11-27 20:00:00 6.1 0 Calma 9 Sudeste 1.2 -- -- 100
2019-11-27 19:00:00 6.3 0 Calma 16 Sudoeste 1.2 -- -- 100
2019-11-27 18:00:00 6.7 3 Sudoeste 13 Sudoeste 0.8 -- -- 99
2019-11-27 17:00:00 7.3 8 Sudoeste 24 Oeste 0.6 -- -- 95
2019-11-27 16:00:00 8.9 11 Sur 24 Sur 0 -- -- 82
2019-11-27 15:00:00 9 7 Sudoeste 19 Sur 0 -- -- 79
2019-11-27 14:00:00 9.3 10 Sur 25 Sur 0 -- -- 81
2019-11-27 06:00:00 4.3 0 Calma 18 Sur 0 -- -- 96
2019-11-27 05:00:00 6.7 8 Sudoeste 20 Sudoeste 0 -- -- 88
2019-11-27 04:00:00 7.3 10 Sudoeste 24 Sudoeste 0 -- -- 89
2019-11-27 03:00:00 8.2 9 Sudoeste 32 Sudoeste 0 -- -- 91
2019-11-27 02:00:00 8.7 15 Sudoeste 41 Sudeste 0 -- -- 92
2019-11-27 01:00:00 8.8 15 Sudoeste 40 Sudoeste 0 -- -- 96
2019-11-27 00:00:00 9.4 9 Sudoeste 31 Sur 3 -- -- 99
2019-11-26 23:00:00 9.5 9 Sur 30 Sur 3.4 -- -- 100
2019-11-26 22:00:00 9.7 10 Sudoeste 51 Sur 3.8 -- -- 99
2019-11-26 21:00:00 10.9 24 Sur 52 Sur 0 -- -- 90
2019-11-26 20:00:00 11.2 26 Sur 51 Sur 0 -- -- 86
2019-11-26 19:00:00 11.8 25 Sur 53 Sur 0 -- -- 83
2019-11-26 18:00:00 11.8 24 Sur 64 Sudoeste 0 -- -- 83
2019-11-26 17:00:00 11.4 22 Sur 41 Sur 0 -- -- 86
2019-11-26 16:00:00 11.1 13 Sur 37 Sudoeste 0 -- -- 85
2019-11-26 15:00:00 11 17 Sudoeste 35 Sudoeste 0 -- -- 84
2019-11-26 14:00:00 11.3 14 Sur 30 Sudeste 0 -- -- 82
2019-11-26 13:00:00 10.8 13 Sudeste 32 Sudeste 0.2 -- -- 85
2019-11-26 12:00:00 10.6 12 Sur 19 Sur 0 -- -- 83
2019-11-26 11:00:00 9.8 8 Sudeste 21 Sur 0 -- -- 83
2019-11-26 10:00:00 8.4 6 Sur 13 Sudeste 0 -- -- 90
2019-11-26 09:00:00 6.8 6 Este 13 Nordeste 0 -- -- 92
2019-11-26 08:00:00 6.1 4 Nordeste 12 Sudeste 0 -- -- 96
2019-11-26 07:00:00 6 3 Este 7 Este 0 -- -- 100
2019-11-26 06:00:00 5.4 2 Sudoeste 6 Sudeste 0 -- -- 100
2019-11-26 05:00:00 5.8 2 Sur 8 Este 0 -- -- 100
2019-11-26 04:00:00 5.9 3 Sudoeste 12 Sudeste 0 -- -- 100
2019-11-26 03:00:00 6 6 Sur 13 Sur 0 -- -- 98
2019-11-26 02:00:00 5.5 2 Oeste 9 Sur 0 -- -- 100
2019-11-26 01:00:00 5.7 2 Sudoeste 5 Sudoeste 0 -- -- 100
2019-11-26 00:00:00 5.6 0 Calma 6 Sudeste 0 -- -- 100
2019-11-25 23:00:00 6.1 0 Calma 6 Nordeste 0 -- -- 99
2019-11-25 22:00:00 6.5 3 Norte 6 Norte 0 -- -- 98
2019-11-25 21:00:00 7.1 2 Nordeste 5 Nordeste 0 -- -- 97
2019-11-25 20:00:00 7 2 Norte 5 Norte 0 -- -- 97
2019-11-25 19:00:00 7.6 0 Calma 6 Norte 0 -- -- 98
2019-11-25 18:00:00 7.6 3 Norte 12 Nordeste 0 -- -- 99
2019-11-25 17:00:00 9.4 3 Este 10 Este 0 -- -- 95
2019-11-25 16:00:00 12 2 Este 9 Sudoeste 0 -- -- 77
2019-11-25 15:00:00 10.7 3 Sudoeste 12 Sur 0 -- -- 87
2019-11-25 14:00:00 10.7 7 Sur 12 Sur 0 -- -- 86
2019-11-25 13:00:00 9.4 5 Sur 10 Sur 0 -- -- 93
2019-11-25 12:00:00 8.6 4 Sudeste 11 Sur 0 -- -- 95
2019-11-25 11:00:00 9 2 Sudeste 8 Este 0 -- -- 91
2019-11-25 10:00:00 7 0 Calma 3 Nordeste 0 -- -- 100
2019-11-25 09:00:00 5.9 0 Calma 5 Nordeste 0 -- -- 100
2019-11-25 08:00:00 5.7 0 Calma 4 Norte 0 -- -- 100
2019-11-25 07:00:00 5.3 0 Calma 3 Noroeste 0 -- -- 100
2019-11-25 06:00:00 5.3 0 Calma 5 Sudoeste 0 -- -- 100
2019-11-25 05:00:00 5 0 Calma 6 Sur 0 -- -- 100
2019-11-25 04:00:00 4.4 2 Sudoeste 5 Sudoeste 0 -- -- 100
2019-11-25 03:00:00 4.4 3 Norte 7 Nordeste 0 -- -- 100
2019-11-25 02:00:00 4.1 0 Calma 9 Este 0 -- -- 100
2019-11-25 01:00:00 4 4 Este 10 Este 0.4 -- -- 100
2019-11-25 00:00:00 4 0 Calma 5 Este 1.4 -- -- 100
2019-11-24 23:00:00 3.9 2 Sudoeste 13 Sudoeste 0.2 -- -- 100
2019-11-24 22:00:00 3.5 3 Sur 8 Sur 0 -- -- 100
2019-11-24 21:00:00 3.6 2 Oeste 8 Este 0 -- -- 100
2019-11-24 20:00:00 3 0 Calma 11 Sudeste 0 -- -- 100
2019-11-24 19:00:00 3.1 0 Calma 5 Sur 0 -- -- 100
2019-11-24 18:00:00 4.1 0 Calma 8 Sur 0 -- -- 100
2019-11-24 17:00:00 5 3 Sudoeste 10 Sudoeste 0 -- -- 100
2019-11-24 16:00:00 5.4 6 Sudoeste 16 Sudoeste 0 -- -- 100
2019-11-24 15:00:00 6.1 4 Sur 13 Sudoeste 0 -- -- 96
2019-11-24 14:00:00 6 3 Sudeste 13 Nordeste 0 -- -- 98
2019-11-24 13:00:00 5.2 5 Nordeste 13 Nordeste 1.2 -- -- 98
2019-11-24 12:00:00 4.6 3 Nordeste 18 Oeste 1 -- -- 98
2019-11-24 11:00:00 4.2 3 Noroeste 6 Noroeste 0.8 -- -- 100
2019-11-24 10:00:00 2.5 3 Oeste 17 Noroeste 1.8 -- -- 100
2019-11-24 09:00:00 1.7 3 Noroeste 8 Oeste 3.8 -- -- 100
2019-11-24 08:00:00 0.2 0 Calma 4 Nordeste 4 -- -- 100
2019-11-24 07:00:00 0.5 0 Calma 6 Sudoeste 4.6 -- -- 100
2019-11-24 06:00:00 1.4 2 Nordeste 9 Sudoeste 3.2 -- -- 100
2019-11-24 05:00:00 1.3 2 Sudoeste 16 Oeste 6 -- -- 100
2019-11-24 04:00:00 3 0 Calma 12 Norte 0.6 -- -- 100
2019-11-24 03:00:00 2.8 3 Oeste 15 Oeste 1.6 -- -- 100
2019-11-24 02:00:00 2.6 0 Calma 14 Norte 2 -- -- 100
2019-11-24 01:00:00 1.3 2 Sur 12 Oeste 6 -- -- 100
2019-11-24 00:00:00 2.9 5 Nordeste 18 Nordeste 5.6 -- -- 98
2019-11-23 23:00:00 3.4 6 Norte 21 Norte 3.6 -- -- 97
2019-11-23 22:00:00 3.9 4 Nordeste 18 Nordeste 1.8 -- -- 98
2019-11-23 21:00:00 3.7 6 Norte 21 Norte 5.2 -- -- 97
2019-11-23 20:00:00 4.4 5 Noroeste 30 Oeste 0.4 -- -- 94
2019-11-23 19:00:00 4 9 Noroeste 32 Norte 2 -- -- 96
2019-11-23 18:00:00 4.2 9 Norte 30 Norte 0.8 -- -- 97
2019-11-23 17:00:00 3.4 5 Noroeste 31 Nordeste 7.8 -- -- 98
2019-11-23 16:00:00 4.7 5 Este 32 Oeste 1.6 -- -- 92
2019-11-23 15:00:00 4 9 Noroeste 31 Sudoeste 3.2 -- -- 97
2019-11-23 14:00:00 4.4 8 Sur 33 Este 2.8 -- -- 97
2019-11-23 13:00:00 4.2 5 Noroeste 32 Noroeste 4.6 -- -- 97
2019-11-23 12:00:00 4 7 Noroeste 46 Sur 5.8 -- -- 98
2019-11-23 11:00:00 3 5 Sur 18 Sur 3.4 -- -- 100
2019-11-23 10:00:00 1.2 0 Calma 13 Sur 4.6 -- -- 100
2019-11-23 09:00:00 2.7 8 Sudoeste 23 Sudoeste 2.4 -- -- 100
2019-11-23 08:00:00 3.1 3 Sur 9 Sudeste 2 -- -- 100
2019-11-23 07:00:00 3.4 5 Sur 19 Sudoeste 3.2 -- -- 99
2019-11-23 06:00:00 4.7 8 Sudoeste 23 Sudoeste 2 -- -- 99
2019-11-23 05:00:00 5.6 6 Sudoeste 26 Sudoeste 0 -- -- 93
2019-11-23 04:00:00 5.8 10 Sudoeste 29 Sudoeste 0 -- -- 94
2019-11-23 03:00:00 5.5 8 Sudoeste 22 Sur 0 -- -- 97
2019-11-23 02:00:00 6.3 10 Sur 29 Sudeste 0 -- -- 92
2019-11-23 01:00:00 6.3 10 Sudoeste 28 Sudoeste 0 -- -- 95
2019-11-23 00:00:00 6.7 13 Sur 28 Sur 0 -- -- 93
2019-11-22 23:00:00 6.3 10 Sudoeste 33 Sur 0 -- -- 97
2019-11-22 22:00:00 7 18 Sur 38 Sur 0 -- -- 94
2019-11-22 21:00:00 6.9 13 Sur 41 Sur 1 -- -- 97
2019-11-22 20:00:00 7.1 13 Sur 42 Este 0.2 -- -- 95
2019-11-22 19:00:00 6.2 13 Sur 44 Sur 1.4 -- -- 98
2019-11-22 18:00:00 6.4 25 Sur 54 Sur 1 -- -- 95
2019-11-22 17:00:00 6.3 30 Sur 54 Sur 1.8 -- -- 95
2019-11-22 16:00:00 6 27 Sur 59 Sur 2.2 -- -- 94
2019-11-22 15:00:00 5.8 24 Sur 55 Sur 0.4 -- -- 94
2019-11-22 14:00:00 5.5 26 Sur 58 Sur 1 -- -- 95
2019-11-22 13:00:00 5.3 23 Sur 59 Sur 1.6 -- -- 93
2019-11-22 12:00:00 5.2 27 Sur 54 Sur 1.4 -- -- 91
2019-11-22 11:00:00 5 32 Sur 56 Sur 0.4 -- -- 91
2019-11-22 10:00:00 4.9 16 Sur 40 Sur 0.2 -- -- 90
2019-11-22 09:00:00 4.7 26 Sur 45 Sur 0 -- -- 89
2019-11-22 08:00:00 5.5 29 Sur 45 Sur 0 -- -- 82
2019-11-22 07:00:00 5 24 Sur 54 Sur 0 -- -- 86
2019-11-22 06:00:00 5 21 Sur 41 Sur 0 -- -- 86
2019-11-22 05:00:00 4.7 13 Sur 26 Sur 0 -- -- 86
2019-11-22 04:00:00 4.4 13 Sur 32 Sur 0 -- -- 88
2019-11-22 03:00:00 4.6 20 Sur 39 Sudoeste 0 -- -- 87
2019-11-22 02:00:00 4.5 17 Sur 35 Sur 0 -- -- 88
2019-11-22 01:00:00 4.1 5 Sudeste 17 Sudeste 0 -- -- 92
2019-11-22 00:00:00 3.7 4 Sudoeste 18 Sudoeste 0 -- -- 94
2019-11-21 23:00:00 3.6 4 Sur 15 Sudeste 0 -- -- 95
2019-11-21 22:00:00 2.6 0 Calma 8 Nordeste 0 -- -- 98
2019-11-21 21:00:00 2.6 4 Nordeste 9 Nordeste 0 -- -- 99
2019-11-21 20:00:00 3.1 0 Calma 8 Oeste 0 -- -- 99
2019-11-21 19:00:00 2.8 0 Calma 6 Sudoeste 0 -- -- 100
2019-11-21 18:00:00 3.4 2 Oeste 13 Sur 0.2 -- -- 100
2019-11-21 17:00:00 4.5 8 Sudoeste 22 Sur 0.2 -- -- 94
2019-11-21 16:00:00 4.4 9 Sudoeste 21 Sur 0 -- -- 93
2019-11-21 15:00:00 4.5 9 Sur 25 Sur 0 -- -- 90
2019-11-21 14:00:00 4.8 17 Sur 30 Sur 0 -- -- 87
2019-11-21 13:00:00 4.5 15 Sur 33 Sur 0 -- -- 88
2019-11-21 12:00:00 4.2 14 Sur 30 Sudoeste 0 -- -- 89
2019-11-21 11:00:00 3.9 10 Sur 23 Sudoeste 0 -- -- 91
2019-11-21 10:00:00 3.2 7 Sur 18 Sur 0 -- -- 94
2019-11-21 09:00:00 2.8 5 Sur 17 Sudeste 0 -- -- 93
2019-11-21 08:00:00 2.6 10 Sur 20 Sur 0 -- -- 95
2019-11-21 07:00:00 2.8 5 Sur 28 Sur 0 -- -- 95
2019-11-21 06:00:00 2.4 6 Sur 19 Sur 0 -- -- 96
2019-11-21 05:00:00 2.2 3 Sudoeste 21 Sudoeste 0 -- -- 97
2019-11-21 04:00:00 1.9 10 Sur 17 Sur 0 -- -- 97
2019-11-21 03:00:00 1.7 7 Sur 19 Sudeste 0 -- -- 98
2019-11-21 02:00:00 1.8 9 Sur 18 Sur 0 -- -- 97
2019-11-21 01:00:00 1.7 5 Sur 23 Sur 0.6 -- -- 96
2019-11-21 00:00:00 1.8 10 Sur 27 Sur 0.2 -- -- 95
2019-11-20 23:00:00 2.7 13 Sur 30 Sudoeste 0 -- -- 90
2019-11-20 22:00:00 3.3 11 Sur 31 Sudoeste 0 -- -- 85
2019-11-20 21:00:00 4.2 12 Sur 25 Sudeste 0 -- -- 73
2019-11-20 20:00:00 4.6 9 Sur 26 Sur 0 -- -- 70
2019-11-20 19:00:00 4.6 8 Sur 22 Sur 0 -- -- 67
2019-11-20 18:00:00 4.7 8 Sur 19 Sur 0 -- -- 68
2019-11-20 17:00:00 4.9 9 Sur 24 Sur 0 -- -- 71
2019-11-20 16:00:00 5.1 13 Sudoeste 26 Sur 0 -- -- 73
2019-11-20 15:00:00 5.1 14 Sur 27 Sur 0 -- -- 73
2019-11-20 14:00:00 5.1 11 Sur 28 Sur 0 -- -- 72
2019-11-20 13:00:00 4.7 15 Sudoeste 24 Sur 0 -- -- 73
2019-11-20 12:00:00 4.4 11 Sur 25 Sur 0 -- -- 72
2019-11-20 11:00:00 3.4 10 Sur 24 Sur 0 -- -- 76
2019-11-20 10:00:00 2.2 7 Sur 15 Sudoeste 0 -- -- 80
2019-11-20 09:00:00 1 5 Sur 13 Sur 0 -- -- 85
2019-11-20 08:00:00 -0.1 0 Calma 7 Sur 0 -- -- 88
2019-11-20 07:00:00 0.4 3 Sudeste 12 Sudeste 0 -- -- 86
2019-11-20 06:00:00 -0.1 2 Sudeste 6 Este 0 -- -- 91
2019-11-20 05:00:00 0.1 2 Sudoeste 10 Sur 0 -- -- 90
2019-11-20 04:00:00 0.6 0 Calma 8 Nordeste 0 -- -- 87
2019-11-20 03:00:00 0.6 3 Nordeste 9 Nordeste 0 -- -- 90
2019-11-20 02:00:00 0.8 3 Nordeste 7 Sudeste 0 -- -- 90
2019-11-20 01:00:00 0.4 0 Calma 5 Este 0 -- -- 91
2019-11-20 00:00:00 0.9 0 Calma 5 Oeste 0 -- -- 88
2019-11-19 23:00:00 0.8 0 Calma 6 Sudeste 0 -- -- 89
2019-11-19 22:00:00 1 2 Sudoeste 6 Sur 0 -- -- 85
2019-11-19 21:00:00 1.4 2 Norte 6 Este 0 -- -- 85
2019-11-19 20:00:00 -0.6 0 Calma 4 Norte 0 -- -- 91
2019-11-19 19:00:00 -0.1 0 Calma 4 Noroeste 0 -- -- 92
2019-11-19 18:00:00 0.9 0 Calma 5 Norte 0 -- -- 87
2019-11-19 17:00:00 2.4 0 Calma 5 Nordeste 0 -- -- 83
2019-11-19 16:00:00 4.5 4 Norte 16 Norte 0 -- -- 75
2019-11-19 15:00:00 5.4 9 Norte 19 Norte 0 -- -- 62
2019-11-19 14:00:00 5.2 9 Norte 22 Nordeste 0 -- -- 64
2019-11-19 13:00:00 4.8 9 Nordeste 21 Norte 0 -- -- 67
2019-11-19 12:00:00 5.1 5 Norte 21 Norte 0 -- -- 62
2019-11-19 11:00:00 3.7 9 Norte 28 Norte 0 -- -- 71
2019-11-19 10:00:00 2.4 5 Este 17 Norte 0 -- -- 81
2019-11-19 09:00:00 1.1 4 Norte 17 Noroeste 0 -- -- 86
2019-11-19 08:00:00 -0.8 3 Norte 15 Norte 0 -- -- 92
2019-11-19 07:00:00 -1 0 Calma 13 Noroeste 0 -- -- 94
2019-11-19 06:00:00 -0.3 3 Noroeste 12 Noroeste 0 -- -- 94
2019-11-19 05:00:00 0.6 3 Este 13 Norte 0 -- -- 89
2019-11-19 04:00:00 0.3 3 Noroeste 10 Noroeste 0 -- -- 90
2019-11-19 03:00:00 0 2 Sudeste 16 Norte 0 -- -- 92
2019-11-19 02:00:00 0.7 10 Norte 23 Norte 0 -- -- 87
2019-11-19 01:00:00 0.9 10 Norte 29 Noroeste 0 -- -- 86
2019-11-19 00:00:00 0.4 15 Norte 31 Norte 0 -- -- 89
2019-11-18 23:00:00 0.3 5 Noroeste 14 Este 0 -- -- 90
2019-11-18 22:00:00 0.1 5 Noroeste 14 Noroeste 0 -- -- 92
2019-11-18 21:00:00 -0.4 3 Sudeste 14 Este 0 -- -- 96
2019-11-18 20:00:00 0.2 4 Sur 15 Noroeste 0 -- -- 98
2019-11-18 19:00:00 0.4 6 Sudoeste 21 Noroeste 0 -- -- 98
2019-11-18 18:00:00 0.6 9 Noroeste 23 Noroeste 0 -- -- 96
2019-11-18 17:00:00 0.7 8 Noroeste 18 Noroeste 0 -- -- 94
2019-11-18 16:00:00 1 3 Sudoeste 12 Oeste 0 -- -- 92
2019-11-18 15:00:00 0.9 5 Sudoeste 14 Sudoeste 0 -- -- 91
2019-11-18 14:00:00 1.3 5 Sudoeste 26 Noroeste 0 -- -- 87
2019-11-18 13:00:00 1.4 9 Noroeste 26 Noroeste 0 -- -- 88
2019-11-18 12:00:00 1 7 Oeste 27 Norte 0 -- -- 89
2019-11-18 11:00:00 0.7 5 Sur 20 Noroeste 0 -- -- 96
2019-11-18 10:00:00 0.4 5 Sur 27 Norte 0 -- -- 98
2019-11-18 09:00:00 0.2 5 Oeste 20 Noroeste 0 -- -- 100
2019-11-18 08:00:00 -0.1 7 Sudoeste 24 Este 0.2 -- -- 100
2019-11-18 07:00:00 0.3 7 Sudeste 28 Este 0 -- -- 98
2019-11-18 06:00:00 0.4 8 Sur 28 Noroeste 0 -- -- 100
2019-11-18 05:00:00 1 5 Oeste 32 Noroeste 1.2 -- -- 100
2019-11-18 04:00:00 1.5 3 Sudoeste 14 Noroeste 0.4 -- -- 100
2019-11-18 03:00:00 1.6 4 Oeste 15 Oeste 1 -- -- 100
2019-11-18 02:00:00 1.2 0 Calma 8 Oeste 0.6 -- -- 100
2019-11-18 01:00:00 1.2 2 Sudeste 5 Sur 0.8 -- -- 100
2019-11-18 00:00:00 1.8 0 Calma 6 Oeste 1.6 -- -- 100
2019-11-17 23:00:00 1.7 0 Calma 4 Sur 0.2 -- -- 100
2019-11-17 22:00:00 1.4 0 Calma 3 Nordeste 0 -- -- 100
2019-11-17 21:00:00 1.3 0 Calma 4 Norte 0.2 -- -- 100
2019-11-17 20:00:00 1.4 0 Calma 5 Nordeste 0 -- -- 100
2019-11-17 19:00:00 1.2 2 Norte 6 Norte 0.8 -- -- 100
2019-11-17 18:00:00 1.2 0 Calma 4 Norte 1.2 -- -- 100
2019-11-17 17:00:00 1.3 0 Calma 4 Nordeste 0.4 -- -- 100
2019-11-17 16:00:00 1.5 0 Calma 2 Norte 0.4 -- -- 100
2019-11-17 15:00:00 2 0 Calma 5 Norte 0.4 -- -- 100
2019-11-17 14:00:00 1.4 0 Calma 6 Norte 0.8 -- -- 100
2019-11-17 13:00:00 1.6 0 Calma 5 Este 0.8 -- -- 100
2019-11-17 12:00:00 1 0 Calma 0 Calma 0 -- -- 100
2019-11-17 11:00:00 0.8 0 Calma 0 Calma 0.2 -- -- 100
2019-11-17 10:00:00 0.4 0 Calma 0 Calma 0.2 -- -- 100
2019-11-17 09:00:00 0.1 0 Calma 0 Calma 0 -- -- 100
2019-11-17 08:00:00 0 0 Calma 0 Calma 0.4 -- -- 100
2019-11-17 07:00:00 -0.1 0 Calma 0 Calma 0.8 -- -- 100
2019-11-17 06:00:00 0 0 Calma 0 Calma 1.2 -- -- 100
2019-11-17 05:00:00 0 0 Calma 0 Calma 0.2 -- -- 100
2019-11-17 04:00:00 0 0 Calma 0 Calma 0.2 -- -- 100
2019-11-17 03:00:00 0.1 0 Calma 0 Calma 0 -- -- 100
2019-11-17 02:00:00 0.1 0 Calma 4 Norte 0.4 -- -- 100
2019-11-17 01:00:00 0 0 Calma 0 Calma 0 -- -- 100
2019-11-17 00:00:00 -0.1 0 Calma 3 Norte 0 -- -- 100
2019-11-16 23:00:00 0 0 Calma 0 Calma 0 -- -- 100
2019-11-16 22:00:00 -0.1 0 Calma 4 Norte 1 -- -- 100
2019-11-16 21:00:00 -0.1 2 Norte 6 Norte 1.2 -- -- 100
2019-11-16 20:00:00 -0.1 0 Calma 4 Norte 0.8 -- -- 100
2019-11-16 19:00:00 -0.1 0 Calma 2 Norte 1.4 -- -- 100
2019-11-16 18:00:00 -0.1 0 Calma 6 Norte 1.8 -- -- 100
2019-11-16 17:00:00 0 0 Calma 6 Norte 2 -- -- 100
2019-11-16 16:00:00 0 0 Calma 4 Norte 3.4 -- -- 100
2019-11-16 15:00:00 -0.1 0 Calma 5 Sur 3.4 -- -- 100
2019-11-16 14:00:00 0.2 0 Calma 3 Sur 2.8 -- -- 100
2019-11-16 13:00:00 0.4 0 Calma 2 Sur 3.6 -- -- 100
2019-11-16 12:00:00 0.2 0 Calma 4 Sudoeste 2.6 -- -- 100
2019-11-16 11:00:00 0 3 Sudoeste 6 Sudoeste 0.4 -- -- 100
2019-11-16 10:00:00 0 0 Calma 5 Sudeste 0 -- -- 100
2019-11-16 09:00:00 -0.3 0 Calma 4 Este 0 -- -- 100
2019-11-16 08:00:00 -0.8 2 Sur 7 Sudoeste 0 -- -- 100
2019-11-16 07:00:00 -0.6 0 Calma 4 Sudoeste 0 -- -- 100
2019-11-16 06:00:00 0.1 2 Oeste 5 Este 0 -- -- 100
2019-11-16 05:00:00 0.6 2 Sur 12 Este 0 -- -- 97
2019-11-16 04:00:00 1 5 Norte 16 Norte 0 -- -- 96
2019-11-16 03:00:00 0.7 6 Norte 25 Norte 0 -- -- 97
2019-11-16 02:00:00 0.6 5 Norte 21 Nordeste 0 -- -- 95
2019-11-16 01:00:00 0.6 7 Norte 19 Nordeste 0 -- -- 94
2019-11-16 00:00:00 -0.3 4 Norte 13 Norte 0 -- -- 99
2019-11-15 23:00:00 -0.1 9 Norte 18 Nordeste 0 -- -- 100
2019-11-15 22:00:00 0.1 4 Nordeste 11 Norte 0 -- -- 100
2019-11-15 21:00:00 -0.1 0 Calma 4 Sur 0 -- -- 100
2019-11-15 20:00:00 0 0 Calma 7 Nordeste 0.2 -- -- 100
2019-11-15 19:00:00 0.1 0 Calma 12 Nordeste 0 -- -- 100
2019-11-15 18:00:00 0.6 2 Norte 14 Norte 1 -- -- 100
2019-11-15 17:00:00 0.4 2 Noroeste 7 Oeste 1.6 -- -- 100
2019-11-15 16:00:00 1.4 3 Norte 17 Nordeste 0 -- -- 94
2019-11-15 15:00:00 1.5 6 Oeste 29 Noroeste 0.4 -- -- 93
2019-11-15 14:00:00 2.1 10 Norte 32 Norte 0.8 -- -- 91
2019-11-15 13:00:00 1.3 3 Sur 9 Sudeste 1.2 -- -- 100
2019-11-15 12:00:00 0.1 2 Norte 9 Nordeste 2.8 -- -- 100
2019-11-15 11:00:00 -0.1 0 Calma 12 Sudoeste 1.8 -- -- 100
2019-11-15 10:00:00 -0.3 3 Sur 9 Sudoeste 0.8 -- -- 100
2019-11-15 09:00:00 -0.5 2 Sudoeste 8 Sudoeste 0.8 -- -- 100
2019-11-15 08:00:00 -0.3 3 Sudoeste 6 Sur 1 -- -- 100
2019-11-15 07:00:00 -0.3 4 Sudoeste 9 Sudoeste 0 -- -- 100
2019-11-15 06:00:00 -0.4 3 Sudoeste 13 Sur 0 -- -- 100
2019-11-15 05:00:00 -0.1 4 Sur 8 Sur 0 -- -- 100
2019-11-15 04:00:00 -0.1 3 Sur 5 Sudoeste 0.2 -- -- 100
2019-11-15 03:00:00 -0.2 0 Calma 4 Sur 0 -- -- 100
2019-11-15 02:00:00 -0.2 0 Calma 3 Sudoeste 1.2 -- -- 100
2019-11-15 01:00:00 -0.2 0 Calma 4 Oeste 0.6 -- -- 100
2019-11-15 00:00:00 -0.1 0 Calma 2 Oeste 1.8 -- -- 100
2019-11-14 23:00:00 -0.2 0 Calma 2 Noroeste 0.8 -- -- 100
2019-11-14 22:00:00 -0.6 0 Calma 5 Este 0 -- -- 100
2019-11-14 21:00:00 -0.8 2 Este 5 Este 0 -- -- 100
2019-11-14 20:00:00 -0.8 0 Calma 5 Norte 0 -- -- 100
2019-11-14 19:00:00 -0.4 0 Calma 5 Norte 0 -- -- 100
2019-11-14 18:00:00 0.5 3 Norte 7 Sudoeste 0 -- -- 97
2019-11-14 17:00:00 2.7 3 Sudoeste 17 Sudoeste 0 -- -- 86
2019-11-14 16:00:00 3.4 5 Sudoeste 22 Sudoeste 0 -- -- 81
2019-11-14 15:00:00 3.3 5 Sudoeste 19 Sudoeste 0 -- -- 82
2019-11-14 14:00:00 3.3 10 Sur 22 Sur 0 -- -- 84
2019-11-14 13:00:00 3.1 5 Sur 16 Sur 0 -- -- 85
2019-11-14 12:00:00 3.6 2 Sudeste 4 Sur 0 -- -- 83
2019-11-14 11:00:00 1.5 0 Calma 4 Norte 0 -- -- 94
2019-11-14 10:00:00 0.3 0 Calma 5 Norte 0 -- -- 100
2019-11-14 09:00:00 -0.1 0 Calma 3 Norte 0 -- -- 100
2019-11-14 08:00:00 -0.5 0 Calma 5 Norte 0.2 -- -- 100
2019-11-14 07:00:00 -0.2 0 Calma 9 Norte 2 -- -- 100
2019-11-14 06:00:00 -0.1 0 Calma 2 Oeste 2.2 -- -- 100
2019-11-14 05:00:00 0 0 Calma 13 Nordeste 3 -- -- 100
2019-11-14 04:00:00 1.3 9 Nordeste 22 Nordeste 5 -- -- 99
2019-11-14 03:00:00 3 2 Norte 5 Sudoeste 0 -- -- 99
2019-11-14 02:00:00 4.1 2 Noroeste 10 Sudoeste 0 -- -- 94
2019-11-14 01:00:00 3.7 3 Sudoeste 11 Oeste 0 -- -- 96
2019-11-14 00:00:00 2.8 0 Calma 4 Oeste 0 -- -- 99
2019-11-13 23:00:00 3.5 0 Calma 12 Sudeste 0 -- -- 96
2019-11-13 22:00:00 3.7 2 Norte 8 Este 0.2 -- -- 93
2019-11-13 21:00:00 3 2 Nordeste 8 Nordeste 0 -- -- 96
2019-11-13 20:00:00 2.4 0 Calma 6 Este 0 -- -- 99
2019-11-13 19:00:00 1.8 4 Norte 8 Norte 0 -- -- 100
2019-11-13 18:00:00 1.9 2 Norte 7 Este 0 -- -- 97
2019-11-13 17:00:00 3.7 3 Norte 9 Nordeste 0 -- -- 93
2019-11-13 16:00:00 4.8 5 Noroeste 22 Este 0 -- -- 89
2019-11-13 15:00:00 5 4 Oeste 18 Nordeste 0 -- -- 91
2019-11-13 14:00:00 4.5 5 Norte 24 Nordeste 1 -- -- 95
2019-11-13 13:00:00 5.1 5 Norte 19 Norte 0 -- -- 92
2019-11-13 12:00:00 4.9 3 Oeste 21 Noroeste 0 -- -- 95
2019-11-13 11:00:00 4 3 Sudoeste 17 Este 0 -- -- 99
2019-11-13 10:00:00 3.6 6 Nordeste 17 Sudeste 0.4 -- -- 100
2019-11-13 09:00:00 4.1 5 Noroeste 23 Sudeste 1.4 -- -- 100
2019-11-13 08:00:00 3.6 4 Sur 22 Noroeste 1.2 -- -- 100
2019-11-13 07:00:00 3.6 5 Noroeste 26 Noroeste 0.2 -- -- 100
2019-11-13 06:00:00 3.6 4 Sur 21 Noroeste 0 -- -- 100
2019-11-13 05:00:00 3.9 5 Noroeste 15 Norte 0 -- -- 100
2019-11-13 04:00:00 2.6 0 Calma 3 Norte 0 -- -- 100
2019-11-13 03:00:00 2.5 3 Norte 4 Norte 0 -- -- 100
2019-11-13 02:00:00 2.8 3 Norte 6 Nordeste 0 -- -- 100
2019-11-13 01:00:00 3 0 Calma 5 Nordeste 0 -- -- 100
2019-11-13 00:00:00 2.6 0 Calma 5 Nordeste 0 -- -- 100
2019-11-12 23:00:00 2.8 0 Calma 4 Este 0.2 -- -- 100
2019-11-12 22:00:00 2.9 0 Calma 5 Nordeste 0 -- -- 100
2019-11-12 21:00:00 2.8 3 Norte 5 Norte 0.2 -- -- 100
2019-11-12 20:00:00 2.7 0 Calma 5 Norte 0 -- -- 100
2019-11-12 19:00:00 2.6 2 Norte 3 Norte 0 -- -- 100
2019-11-12 18:00:00 2.8 0 Calma 4 Nordeste 0 -- -- 100
2019-11-12 17:00:00 3.5 2 Este 10 Oeste 0.2 -- -- 100
2019-11-12 16:00:00 4.4 3 Sudeste 8 Sudeste 0 -- -- 98
2019-11-12 15:00:00 4.4 4 Sur 11 Sudeste 1 -- -- 100
2019-11-12 14:00:00 4.4 3 Noroeste 11 Norte 1 -- -- 98
2019-11-12 13:00:00 4.1 0 Calma 11 Oeste 1 -- -- 98
2019-11-12 12:00:00 4.3 3 Norte 15 Este 2.2 -- -- 97
2019-11-12 11:00:00 4.4 2 Nordeste 15 Noroeste 2.2 -- -- 96
2019-11-12 10:00:00 3.6 2 Oeste 10 Noroeste 1 -- -- 99
2019-11-12 09:00:00 3.5 4 Noroeste 13 Noroeste 1.4 -- -- 99
2019-11-12 08:00:00 3 7 Norte 26 Nordeste 2.8 -- -- 98
2019-11-12 07:00:00 3.1 3 Noroeste 22 Nordeste 0.8 -- -- 99
2019-11-12 06:00:00 3.2 6 Norte 19 Nordeste 1.4 -- -- 100
2019-11-12 05:00:00 3.2 5 Norte 15 Norte 1.2 -- -- 98
2019-11-12 04:00:00 3.1 5 Norte 15 Noroeste 1.2 -- -- 100
2019-11-12 03:00:00 2.8 4 Oeste 14 Sudeste 0.6 -- -- 100
2019-11-12 02:00:00 2.2 4 Oeste 17 Norte 0.8 -- -- 100
2019-11-12 01:00:00 2 3 Sudoeste 17 Noroeste 0 -- -- 100
2019-11-12 00:00:00 2.7 5 Sudoeste 25 Noroeste 0.2 -- -- 99
2019-11-11 23:00:00 2.8 5 Sudoeste 17 Oeste 1.6 -- -- 100
2019-11-11 22:00:00 2.8 4 Oeste 25 Oeste 0.8 -- -- 100
2019-11-11 21:00:00 2.6 5 Oeste 19 Noroeste 1 -- -- 100
2019-11-11 20:00:00 2.9 6 Sudoeste 22 Sudoeste 1.4 -- -- 100
2019-11-11 19:00:00 2.8 6 Sudoeste 26 Noroeste 0.6 -- -- 98
2019-11-11 18:00:00 2.8 6 Sudoeste 34 Norte 0.4 -- -- 98
2019-11-11 17:00:00 3.5 10 Norte 32 Norte 4.4 -- -- 97
2019-11-11 16:00:00 4.2 10 Noroeste 37 Norte 0.8 -- -- 95
2019-11-11 15:00:00 5.3 10 Norte 34 Norte 1.8 -- -- 96
2019-11-11 14:00:00 3.9 0 Calma 11 Sudoeste 2.2 -- -- 100
2019-11-11 13:00:00 3.9 3 Oeste 10 Oeste 0.8 -- -- 100
2019-11-11 12:00:00 4.6 0 Calma 3 Sur 0.2 -- -- 95
2019-11-11 11:00:00 4.9 0 Calma 3 Sur 0 -- -- 91
2019-11-11 10:00:00 3.6 0 Calma 0 Calma 0 -- -- 97
2019-11-11 09:00:00 2.1 0 Calma 3 Nordeste 0 -- -- 100
2019-11-11 08:00:00 1.3 0 Calma 5 Norte 0 -- -- 100
2019-11-11 07:00:00 1.6 2 Noroeste 14 Norte 0 -- -- 99
2019-11-11 06:00:00 3.4 6 Norte 20 Nordeste 0 -- -- 93
2019-11-11 05:00:00 3 9 Nordeste 23 Nordeste 0 -- -- 94
2019-11-11 04:00:00 3 10 Nordeste 23 Nordeste 0 -- -- 93
2019-11-11 03:00:00 2.5 7 Norte 21 Norte 0 -- -- 94
2019-11-11 02:00:00 2.1 5 Norte 14 Norte 0 -- -- 99
2019-11-11 01:00:00 1.5 4 Norte 15 Norte 0 -- -- 99
2019-11-11 00:00:00 0.7 2 Norte 9 Norte 0 -- -- 100